Time,TemperatureF,DewpointF,PressureIn,WindDirection,WindDirectionDegrees,WindSpeedMPH,WindSpeedGustMPH,Humidity,HourlyPrecipIn,Conditions,Clouds,dailyrainin,SoftwareType,DateUTC
2013-05-10 00:00:00,66.0,52.0,-100.00,East,97,3.0,-999.0,59,0.00,,,-99.99,,2013-05-10 07:00:00,
2013-05-10 00:22:00,66.0,52.0,-100.00,East,97,3.0,-999.0,59,0.00,,,-99.99,,2013-05-10 07:22:00,
2013-05-10 00:32:00,66.0,52.0,-100.00,East,97,3.0,-999.0,59,0.00,,,-99.99,,2013-05-10 07:32:00,
2013-05-10 00:42:00,66.0,52.0,-100.00,East,97,3.0,-999.0,59,0.00,,,-99.99,,2013-05-10 07:42:00,
2013-05-10 00:52:00,66.0,52.0,-100.00,East,97,3.0,-999.0,59,0.00,,,-99.99,,2013-05-10 07:52:00,
2013-05-10 01:00:00,62.0,52.0,-100.00,SE,124,4.0,-999.0,69,0.00,,,-99.99,,2013-05-10 08:00:00,
2013-05-10 01:22:00,62.0,52.0,-100.00,SE,124,4.0,-999.0,69,0.00,,,-99.99,,2013-05-10 08:22:00,
2013-05-10 01:32:00,62.0,52.0,-100.00,SE,124,4.0,-999.0,69,0.00,,,-99.99,,2013-05-10 08:32:00,
2013-05-10 01:42:00,62.0,52.0,-100.00,SE,124,4.0,-999.0,69,0.00,,,-99.99,,2013-05-10 08:42:00,
2013-05-10 01:52:00,62.0,52.0,-100.00,SE,124,4.0,-999.0,69,0.00,,,-99.99,,2013-05-10 08:52:00,
2013-05-10 02:00:00,61.0,51.0,-100.00,SSE,147,1.0,-999.0,67,0.00,,,-99.99,,2013-05-10 09:00:00,
2013-05-10 02:21:00,61.0,51.0,-100.00,SSE,147,1.0,-999.0,67,0.00,,,-99.99,,2013-05-10 09:21:00,
2013-05-10 02:33:00,61.0,51.0,-100.00,SSE,147,1.0,-999.0,67,0.00,,,-99.99,,2013-05-10 09:33:00,
2013-05-10 02:43:00,61.0,51.0,-100.00,SSE,147,1.0,-999.0,67,0.00,,,-99.99,,2013-05-10 09:43:00,
2013-05-10 02:52:00,61.0,51.0,-100.00,SSE,147,1.0,-999.0,67,0.00,,,-99.99,,2013-05-10 09:52:00,
2013-05-10 03:00:00,60.0,50.0,-100.00,SW,227,8.0,-999.0,69,0.00,,,-99.99,,2013-05-10 10:00:00,
2013-05-10 03:23:00,60.0,50.0,-100.00,SW,227,8.0,-999.0,69,0.00,,,-99.99,,2013-05-10 10:23:00,
2013-05-10 03:33:00,60.0,50.0,-100.00,SW,227,8.0,-999.0,69,0.00,,,-99.99,,2013-05-10 10:33:00,
2013-05-10 03:42:00,60.0,50.0,-100.00,SW,227,8.0,-999.0,69,0.00,,,-99.99,,2013-05-10 10:42:00,
2013-05-10 03:52:00,60.0,50.0,-100.00,SW,227,8.0,-999.0,69,0.00,,,-99.99,,2013-05-10 10:52:00,
2013-05-10 04:00:00,59.0,50.0,-100.00,SE,126,4.0,-999.0,71,0.00,,,-99.99,,2013-05-10 11:00:00,
2013-05-10 04:32:00,59.0,50.0,-100.00,SE,126,4.0,-999.0,71,0.00,,,-99.99,,2013-05-10 11:32:00,
2013-05-10 04:42:00,59.0,50.0,-100.00,SE,126,4.0,-999.0,71,0.00,,,-99.99,,2013-05-10 11:42:00,
2013-05-10 04:51:00,59.0,50.0,-100.00,SE,126,4.0,-999.0,71,0.00,,,-99.99,,2013-05-10 11:51:00,
2013-05-10 05:00:00,58.0,50.0,-100.00,SE,142,3.0,-999.0,74,0.00,,,-99.99,,2013-05-10 12:00:00,
2013-05-10 05:22:00,58.0,50.0,-100.00,SE,142,3.0,-999.0,74,0.00,,,-99.99,,2013-05-10 12:22:00,
2013-05-10 05:32:00,58.0,50.0,-100.00,SE,142,3.0,-999.0,74,0.00,,,-99.99,,2013-05-10 12:32:00,
2013-05-10 05:42:00,58.0,50.0,-100.00,SE,142,3.0,-999.0,74,0.00,,,-99.99,,2013-05-10 12:42:00,
2013-05-10 05:52:00,58.0,50.0,-100.00,SE,142,3.0,-999.0,74,0.00,,,-99.99,,2013-05-10 12:52:00,
2013-05-10 06:00:00,56.0,49.0,-100.00,SSE,147,4.0,-999.0,76,0.00,,,-99.99,,2013-05-10 13:00:00,
2013-05-10 06:21:00,56.0,49.0,-100.00,SSE,147,4.0,-999.0,76,0.00,,,-99.99,,2013-05-10 13:21:00,
2013-05-10 06:32:00,56.0,49.0,-100.00,SSE,147,4.0,-999.0,76,0.00,,,-99.99,,2013-05-10 13:32:00,
2013-05-10 06:42:00,56.0,49.0,-100.00,SSE,147,4.0,-999.0,76,0.00,,,-99.99,,2013-05-10 13:42:00,
2013-05-10 06:52:00,56.0,49.0,-100.00,SSE,147,4.0,-999.0,76,0.00,,,-99.99,,2013-05-10 13:52:00,
2013-05-10 07:00:00,57.0,49.0,-100.00,SE,128,3.0,-999.0,74,0.00,,,-99.99,,2013-05-10 14:00:00,
2013-05-10 07:21:00,57.0,49.0,-100.00,SE,128,3.0,-999.0,74,0.00,,,-99.99,,2013-05-10 14:21:00,
2013-05-10 07:32:00,57.0,49.0,-100.00,SE,128,3.0,-999.0,74,0.00,,,-99.99,,2013-05-10 14:32:00,
2013-05-10 07:42:00,57.0,49.0,-100.00,SE,128,3.0,-999.0,74,0.00,,,-99.99,,2013-05-10 14:42:00,
2013-05-10 07:52:00,57.0,49.0,-100.00,SE,128,3.0,-999.0,74,0.00,,,-99.99,,2013-05-10 14:52:00,
2013-05-10 08:00:00,60.0,50.0,-100.00,South,173,5.0,-999.0,70,0.00,,,-99.99,,2013-05-10 15:00:00,
2013-05-10 08:22:00,60.0,50.0,-100.00,South,173,5.0,-999.0,70,0.00,,,-99.99,,2013-05-10 15:22:00,
2013-05-10 08:32:00,60.0,50.0,-100.00,South,173,5.0,-999.0,70,0.00,,,-99.99,,2013-05-10 15:32:00,
2013-05-10 08:42:00,60.0,50.0,-100.00,South,173,5.0,-999.0,70,0.00,,,-99.99,,2013-05-10 15:42:00,
2013-05-10 08:53:00,60.0,50.0,-100.00,South,173,5.0,-999.0,70,0.00,,,-99.99,,2013-05-10 15:53:00,
2013-05-10 09:00:00,65.0,52.0,-100.00,SSE,165,6.0,-999.0,63,0.00,,,-99.99,,2013-05-10 16:00:00,
2013-05-10 09:23:00,65.0,52.0,-100.00,SSE,165,6.0,-999.0,63,0.00,,,-99.99,,2013-05-10 16:23:00,
2013-05-10 09:33:00,65.0,52.0,-100.00,SSE,165,6.0,-999.0,63,0.00,,,-99.99,,2013-05-10 16:33:00,
2013-05-10 09:43:00,65.0,52.0,-100.00,SSE,165,6.0,-999.0,63,0.00,,,-99.99,,2013-05-10 16:43:00,
2013-05-10 09:52:00,65.0,52.0,-100.00,SSE,165,6.0,-999.0,63,0.00,,,-99.99,,2013-05-10 16:52:00,
2013-05-10 10:00:00,-999.0,-99.9,-100.00,South,186,4.0,-999.0,61,0.00,,,-99.99,,2013-05-10 17:00:00,
2013-05-10 10:22:00,69.0,55.0,-100.00,South,186,4.0,-999.0,61,0.00,,,-99.99,,2013-05-10 17:22:00,
2013-05-10 10:32:00,69.0,55.0,-100.00,South,186,4.0,-999.0,61,0.00,,,-99.99,,2013-05-10 17:32:00,
2013-05-10 10:42:00,69.0,55.0,-100.00,South,186,4.0,-999.0,61,0.00,,,-99.99,,2013-05-10 17:42:00,
2013-05-10 10:52:00,69.0,55.0,-100.00,South,186,4.0,-999.0,61,0.00,,,-99.99,,2013-05-10 17:52:00,
2013-05-10 11:00:00,71.0,55.0,-100.00,WSW,238,4.0,-999.0,55,0.00,,,-99.99,,2013-05-10 18:00:00,
2013-05-10 11:22:00,71.0,55.0,-100.00,WSW,238,4.0,-999.0,55,0.00,,,-99.99,,2013-05-10 18:22:00,
2013-05-10 11:35:00,71.0,55.0,-100.00,WSW,238,4.0,-999.0,55,0.00,,,-99.99,,2013-05-10 18:35:00,
2013-05-10 11:43:00,71.0,55.0,-100.00,WSW,238,4.0,-999.0,55,0.00,,,-99.99,,2013-05-10 18:43:00,
2013-05-10 11:54:00,71.0,55.0,-100.00,WSW,238,4.0,-999.0,55,0.00,,,-99.99,,2013-05-10 18:54:00,
2013-05-10 12:00:00,76.0,54.0,-100.00,WSW,239,7.0,-999.0,46,0.00,,,-99.99,,2013-05-10 19:00:00,
2013-05-10 12:22:00,76.0,54.0,-100.00,WSW,239,7.0,-999.0,46,0.00,,,-99.99,,2013-05-10 19:22:00,
2013-05-10 12:32:00,76.0,54.0,-100.00,WSW,239,7.0,-999.0,46,0.00,,,-99.99,,2013-05-10 19:32:00,
2013-05-10 12:42:00,76.0,54.0,-100.00,WSW,239,7.0,-999.0,46,0.00,,,-99.99,,2013-05-10 19:42:00,
2013-05-10 12:52:00,76.0,54.0,-100.00,WSW,239,7.0,-999.0,46,0.00,,,-99.99,,2013-05-10 19:52:00,
2013-05-10 13:00:00,79.0,53.0,-100.00,SW,219,4.0,-999.0,41,0.00,,,-99.99,,2013-05-10 20:00:00,
2013-05-10 13:22:00,79.0,53.0,-100.00,SW,219,4.0,-999.0,41,0.00,,,-99.99,,2013-05-10 20:22:00,
2013-05-10 13:32:00,79.0,53.0,-100.00,SW,219,4.0,-999.0,41,0.00,,,-99.99,,2013-05-10 20:32:00,
2013-05-10 13:42:00,79.0,53.0,-100.00,SW,219,4.0,-999.0,41,0.00,,,-99.99,,2013-05-10 20:42:00,
2013-05-10 13:52:00,79.0,53.0,-100.00,SW,219,4.0,-999.0,41,0.00,,,-99.99,,2013-05-10 20:52:00,
2013-05-10 14:00:00,81.0,51.0,-100.00,WNW,286,12.0,-999.0,35,0.00,,,-99.99,,2013-05-10 21:00:00,
2013-05-10 14:25:00,81.0,51.0,-100.00,WNW,286,12.0,-999.0,35,0.00,,,-99.99,,2013-05-10 21:25:00,
2013-05-10 14:32:00,81.0,51.0,-100.00,WNW,286,12.0,-999.0,35,0.00,,,-99.99,,2013-05-10 21:32:00,
2013-05-10 14:43:00,81.0,51.0,-100.00,WNW,286,12.0,-999.0,35,0.00,,,-99.99,,2013-05-10 21:43:00,
2013-05-10 14:52:00,81.0,51.0,-100.00,WNW,286,12.0,-999.0,35,0.00,,,-99.99,,2013-05-10 21:52:00,
2013-05-10 15:00:00,83.0,51.0,-100.00,NNW,345,9.0,-999.0,33,0.00,,,-99.99,,2013-05-10 22:00:00,
2013-05-10 15:22:00,83.0,51.0,-100.00,NNW,345,9.0,-999.0,33,0.00,,,-99.99,,2013-05-10 22:22:00,
2013-05-10 15:32:00,83.0,51.0,-100.00,NNW,345,9.0,-999.0,33,0.00,,,-99.99,,2013-05-10 22:32:00,
2013-05-10 15:42:00,83.0,51.0,-100.00,NNW,345,9.0,-999.0,33,0.00,,,-99.99,,2013-05-10 22:42:00,
2013-05-10 15:52:00,83.0,51.0,-100.00,NNW,345,9.0,-999.0,33,0.00,,,-99.99,,2013-05-10 22:52:00,
2013-05-10 16:00:00,85.0,52.0,-100.00,NNW,328,7.0,-999.0,32,0.00,,,-99.99,,2013-05-10 23:00:00,
2013-05-10 16:22:00,85.0,52.0,-100.00,NNW,328,7.0,-999.0,32,0.00,,,-99.99,,2013-05-10 23:22:00,
2013-05-10 16:33:00,85.0,52.0,-100.00,NNW,328,7.0,-999.0,32,0.00,,,-99.99,,2013-05-10 23:33:00,
2013-05-10 16:42:00,85.0,52.0,-100.00,NNW,328,7.0,-999.0,32,0.00,,,-99.99,,2013-05-10 23:42:00,
2013-05-10 16:52:00,85.0,52.0,-100.00,NNW,328,7.0,-999.0,32,0.00,,,-99.99,,2013-05-10 23:52:00,
2013-05-10 17:00:00,86.0,51.0,-100.00,NNW,337,3.0,-999.0,30,0.00,,,-99.99,,2013-05-11 00:00:00,
2013-05-10 17:22:00,86.0,51.0,-100.00,NNW,337,3.0,-999.0,30,0.00,,,-99.99,,2013-05-11 00:22:00,
2013-05-10 17:32:00,86.0,51.0,-100.00,NNW,337,3.0,-999.0,30,0.00,,,-99.99,,2013-05-11 00:32:00,
2013-05-10 17:42:00,86.0,51.0,-100.00,NNW,337,3.0,-999.0,30,0.00,,,-99.99,,2013-05-11 00:42:00,
2013-05-10 17:52:00,86.0,51.0,-100.00,NNW,337,3.0,-999.0,30,0.00,,,-99.99,,2013-05-11 00:52:00,
2013-05-10 18:00:00,86.0,52.0,-100.00,NW,326,6.0,-999.0,31,0.00,,,-99.99,,2013-05-11 01:00:00,
2013-05-10 18:21:00,86.0,52.0,-100.00,NW,326,6.0,-999.0,31,0.00,,,-99.99,,2013-05-11 01:21:00,
2013-05-10 18:32:00,86.0,52.0,-100.00,NW,326,6.0,-999.0,31,0.00,,,-99.99,,2013-05-11 01:32:00,
2013-05-10 18:42:00,86.0,52.0,-100.00,NW,326,6.0,-999.0,31,0.00,,,-99.99,,2013-05-11 01:42:00,
2013-05-10 18:52:00,86.0,52.0,-100.00,NW,326,6.0,-999.0,31,0.00,,,-99.99,,2013-05-11 01:52:00,
2013-05-10 19:00:00,85.0,52.0,-100.00,NNW,334,6.0,-999.0,31,0.00,,,-99.99,,2013-05-11 02:00:00,
2013-05-10 19:22:00,85.0,52.0,-100.00,NNW,334,6.0,-999.0,31,0.00,,,-99.99,,2013-05-11 02:22:00,
2013-05-10 19:32:00,85.0,52.0,-100.00,NNW,334,6.0,-999.0,31,0.00,,,-99.99,,2013-05-11 02:32:00,
2013-05-10 19:42:00,85.0,52.0,-100.00,NNW,334,6.0,-999.0,31,0.00,,,-99.99,,2013-05-11 02:42:00,
2013-05-10 19:52:00,85.0,52.0,-100.00,NNW,334,6.0,-999.0,31,0.00,,,-99.99,,2013-05-11 02:52:00,
2013-05-10 20:00:00,83.0,54.0,-100.00,WNW,302,4.0,-999.0,37,0.00,,,-99.99,,2013-05-11 03:00:00,
2013-05-10 20:21:00,83.0,54.0,-100.00,WNW,302,4.0,-999.0,37,0.00,,,-99.99,,2013-05-11 03:21:00,
2013-05-10 20:33:00,83.0,54.0,-100.00,WNW,302,4.0,-999.0,37,0.00,,,-99.99,,2013-05-11 03:33:00,
2013-05-10 20:43:00,83.0,54.0,-100.00,WNW,302,4.0,-999.0,37,0.00,,,-99.99,,2013-05-11 03:43:00,
2013-05-10 20:53:00,83.0,54.0,-100.00,WNW,302,4.0,-999.0,37,0.00,,,-99.99,,2013-05-11 03:53:00,
2013-05-10 21:00:00,77.0,56.0,-100.00,South,178,2.0,-999.0,48,0.00,,,-99.99,,2013-05-11 04:00:00,
2013-05-10 21:23:00,77.0,56.0,-100.00,South,178,2.0,-999.0,48,0.00,,,-99.99,,2013-05-11 04:23:00,
2013-05-10 21:33:00,77.0,56.0,-100.00,South,178,2.0,-999.0,48,0.00,,,-99.99,,2013-05-11 04:33:00,
2013-05-10 21:43:00,77.0,56.0,-100.00,South,178,2.0,-999.0,48,0.00,,,-99.99,,2013-05-11 04:43:00,
2013-05-10 21:52:00,77.0,56.0,-100.00,South,178,2.0,-999.0,48,0.00,,,-99.99,,2013-05-11 04:52:00,
2013-05-10 22:00:00,75.0,57.0,-100.00,NNW,331,4.0,-999.0,53,0.00,,,-99.99,,2013-05-11 05:00:00,
2013-05-10 22:22:00,75.0,57.0,-100.00,NNW,331,4.0,-999.0,53,0.00,,,-99.99,,2013-05-11 05:22:00,
2013-05-10 22:32:00,75.0,57.0,-100.00,NNW,331,4.0,-999.0,53,0.00,,,-99.99,,2013-05-11 05:32:00,
2013-05-10 22:42:00,75.0,57.0,-100.00,NNW,331,4.0,-999.0,53,0.00,,,-99.99,,2013-05-11 05:42:00,
2013-05-10 22:52:00,75.0,57.0,-100.00,NNW,331,4.0,-999.0,53,0.00,,,-99.99,,2013-05-11 05:52:00,
2013-05-10 23:00:00,73.0,56.0,-100.00,SE,128,3.0,-999.0,55,0.00,,,-99.99,,2013-05-11 06:00:00,
2013-05-10 23:22:00,73.0,56.0,-100.00,SE,128,3.0,-999.0,55,0.00,,,-99.99,,2013-05-11 06:22:00,
2013-05-10 23:32:00,73.0,56.0,-100.00,SE,128,3.0,-999.0,55,0.00,,,-99.99,,2013-05-11 06:32:00,
2013-05-10 23:42:00,73.0,56.0,-100.00,SE,128,3.0,-999.0,55,0.00,,,-99.99,,2013-05-11 06:42:00,
2013-05-10 23:52:00,73.0,56.0,-100.00,SE,128,3.0,-999.0,55,0.00,,,-99.99,,2013-05-11 06:52:00,